createdAt,value
2023-02-17T00:00:12.199Z,9.44
2023-02-17T00:01:15.053Z,9.44
2023-02-17T00:02:18.044Z,9.44
2023-02-17T00:03:53.643Z,9.44
2023-02-17T00:04:56.891Z,9.44
2023-02-17T00:06:00.026Z,9.44
2023-02-17T00:07:35.385Z,9.38
2023-02-17T00:08:38.363Z,9.44
2023-02-17T00:09:41.278Z,9.44
2023-02-17T00:11:16.161Z,9.44
2023-02-17T00:12:19.196Z,9.44
2023-02-17T00:13:22.125Z,9.44
2023-02-17T00:14:56.851Z,9.44
2023-02-17T00:15:59.726Z,9.38
2023-02-17T00:17:03.677Z,9.38
2023-02-17T00:18:38.581Z,9.38
2023-02-17T00:19:41.672Z,9.44
2023-02-17T00:20:44.752Z,9.44
2023-02-17T00:22:19.612Z,9.44
2023-02-17T00:23:22.421Z,9.44
2023-02-17T00:24:25.654Z,9.44
2023-02-17T00:26:00.736Z,9.44
2023-02-17T00:27:04.520Z,9.44
2023-02-17T00:28:07.509Z,9.44
2023-02-17T00:29:42.560Z,9.44
2023-02-17T00:30:45.851Z,9.44
2023-02-17T00:31:49.532Z,9.44
2023-02-17T00:33:25.177Z,9.44
2023-02-17T00:34:28.168Z,9.44
2023-02-17T00:35:31.439Z,9.50
2023-02-17T00:37:06.342Z,9.50
2023-02-17T00:38:09.346Z,9.50
2023-02-17T00:39:12.473Z,9.50
2023-02-17T00:40:47.402Z,9.50
2023-02-17T00:41:50.429Z,9.50
2023-02-17T00:42:53.597Z,9.50
2023-02-17T00:44:28.535Z,9.50
2023-02-17T00:45:31.638Z,9.50
2023-02-17T00:46:34.837Z,9.50
2023-02-17T00:48:10.161Z,9.50
2023-02-17T00:49:13.634Z,9.56
2023-02-17T00:50:16.627Z,9.56
2023-02-17T00:51:51.564Z,9.56
2023-02-17T00:52:54.660Z,9.56
2023-02-17T00:53:57.688Z,9.56
2023-02-17T00:55:32.751Z,9.56
2023-02-17T00:56:35.745Z,9.56
2023-02-17T00:57:38.858Z,9.56
2023-02-17T00:59:13.745Z,9.56
2023-02-17T01:00:12.953Z,9.56
2023-02-17T01:01:15.949Z,9.56
2023-02-17T01:02:19.327Z,9.56
2023-02-17T01:03:54.269Z,9.56
2023-02-17T01:04:57.195Z,9.56
2023-02-17T01:06:00.399Z,9.56
2023-02-17T01:07:35.954Z,9.56
2023-02-17T01:08:38.922Z,9.56
2023-02-17T01:09:41.833Z,9.56
2023-02-17T01:11:16.906Z,9.56
2023-02-17T01:12:19.886Z,9.56
2023-02-17T01:13:22.920Z,9.56
2023-02-17T01:14:57.894Z,9.56
2023-02-17T01:16:00.746Z,9.56
2023-02-17T01:17:04.555Z,9.56
2023-02-17T01:18:39.488Z,9.56
2023-02-17T01:19:42.610Z,9.56
2023-02-17T01:20:45.718Z,9.56
2023-02-17T01:22:20.618Z,9.63
2023-02-17T01:23:23.719Z,9.56
2023-02-17T01:24:26.755Z,9.63
2023-02-17T01:26:02.484Z,9.63
2023-02-17T01:27:05.652Z,9.63
2023-02-17T01:28:08.615Z,9.63
2023-02-17T01:29:43.868Z,9.63
2023-02-17T01:30:47.351Z,9.63
2023-02-17T01:31:50.982Z,9.63
2023-02-17T01:33:26.062Z,9.63
2023-02-17T01:34:29.101Z,9.63
2023-02-17T01:35:32.020Z,9.63
2023-02-17T01:37:06.932Z,9.69
2023-02-17T01:38:09.831Z,9.69
2023-02-17T01:39:12.771Z,9.69
2023-02-17T01:40:47.896Z,9.69
2023-02-17T01:41:51.121Z,9.69
2023-02-17T01:42:54.138Z,9.69
2023-02-17T01:44:29.140Z,9.69
2023-02-17T01:45:31.901Z,9.69
2023-02-17T01:46:35.090Z,9.69
2023-02-17T01:48:10.026Z,9.69
2023-02-17T01:49:12.842Z,9.69
2023-02-17T01:50:15.933Z,9.69
2023-02-17T01:51:50.863Z,9.69
2023-02-17T01:52:53.849Z,9.63
2023-02-17T01:53:56.961Z,9.63
2023-02-17T01:55:32.154Z,9.69
2023-02-17T01:56:35.168Z,9.69
2023-02-17T01:57:38.662Z,9.63
2023-02-17T01:59:13.555Z,9.63
2023-02-17T02:00:12.405Z,9.69
2023-02-17T02:01:15.411Z,9.69
2023-02-17T02:02:18.912Z,9.69
2023-02-17T02:03:55.247Z,9.69
2023-02-17T02:04:58.173Z,9.69
2023-02-17T02:06:01.088Z,9.69
2023-02-17T02:07:36.788Z,9.69
2023-02-17T02:08:39.777Z,9.69
2023-02-17T02:09:42.977Z,9.69
2023-02-17T02:11:17.818Z,9.69
2023-02-17T02:12:20.781Z,9.69
2023-02-17T02:13:24.009Z,9.69
2023-02-17T02:14:58.676Z,9.69
2023-02-17T02:16:01.684Z,9.69
2023-02-17T02:17:05.394Z,9.69
2023-02-17T02:18:40.239Z,9.69
2023-02-17T02:19:43.150Z,9.69
2023-02-17T02:20:46.066Z,9.69
2023-02-17T02:22:20.897Z,9.63
2023-02-17T02:23:24.018Z,9.63
2023-02-17T02:24:27.085Z,9.63
2023-02-17T02:26:02.194Z,9.63
2023-02-17T02:27:05.885Z,9.63
2023-02-17T02:28:08.838Z,9.63
2023-02-17T02:29:43.430Z,9.63
2023-02-17T02:30:46.765Z,9.63
2023-02-17T02:31:50.233Z,9.63
2023-02-17T02:33:25.470Z,9.63
2023-02-17T02:34:28.695Z,9.63
2023-02-17T02:35:31.760Z,9.63
2023-02-17T02:37:06.806Z,9.56
2023-02-17T02:38:09.800Z,9.56
2023-02-17T02:39:12.864Z,9.56
2023-02-17T02:40:47.587Z,9.56
2023-02-17T02:41:50.533Z,9.56
2023-02-17T02:42:53.859Z,9.56
2023-02-17T02:44:28.907Z,9.56
2023-02-17T02:45:32.017Z,9.50
2023-02-17T02:46:35.504Z,9.50
2023-02-17T02:48:10.720Z,9.50
2023-02-17T02:49:13.733Z,9.50
2023-02-17T02:50:16.816Z,9.44
2023-02-17T02:51:51.397Z,9.44
2023-02-17T02:52:54.125Z,9.44
2023-02-17T02:53:56.983Z,9.44
2023-02-17T02:55:32.283Z,9.38
2023-02-17T02:56:35.122Z,9.38
2023-02-17T02:57:38.139Z,9.38
2023-02-17T02:59:13.379Z,9.38
2023-02-17T03:00:11.973Z,9.38
2023-02-17T03:01:14.977Z,9.38
2023-02-17T03:02:17.968Z,9.38
2023-02-17T03:03:52.984Z,9.38
2023-02-17T03:04:56.386Z,9.38
2023-02-17T03:05:59.233Z,9.38
2023-02-17T03:07:34.452Z,9.38
2023-02-17T03:08:37.236Z,9.31
2023-02-17T03:09:40.055Z,9.31
2023-02-17T03:11:14.825Z,9.38
2023-02-17T03:12:17.816Z,9.31
2023-02-17T03:13:20.695Z,9.31
2023-02-17T03:14:55.344Z,9.31
2023-02-17T03:15:58.284Z,9.31
2023-02-17T03:17:02.210Z,9.31
2023-02-17T03:18:37.090Z,9.31
2023-02-17T03:19:39.862Z,9.31
2023-02-17T03:20:42.796Z,9.31
2023-02-17T03:22:17.806Z,9.31
2023-02-17T03:23:20.707Z,9.31
2023-02-17T03:24:23.627Z,9.31
2023-02-17T03:25:58.440Z,9.31
2023-02-17T03:27:01.830Z,9.31
2023-02-17T03:28:04.668Z,9.31
2023-02-17T03:29:39.311Z,9.31
2023-02-17T03:30:42.277Z,9.31
2023-02-17T03:31:45.508Z,9.31
2023-02-17T03:33:21.319Z,9.25
2023-02-17T03:34:24.307Z,9.25
2023-02-17T03:35:27.557Z,9.25
2023-02-17T03:37:02.441Z,9.25
2023-02-17T03:38:05.387Z,9.25
2023-02-17T03:39:08.485Z,9.19
2023-02-17T03:40:43.463Z,9.19
2023-02-17T03:41:46.254Z,9.19
2023-02-17T03:42:48.996Z,9.19
2023-02-17T03:44:24.825Z,9.19
2023-02-17T03:45:27.564Z,9.19
2023-02-17T03:46:30.933Z,9.13
2023-02-17T03:48:05.787Z,9.19
2023-02-17T03:49:08.768Z,9.13
2023-02-17T03:50:11.737Z,9.19
2023-02-17T03:51:46.641Z,9.19
2023-02-17T03:52:49.717Z,9.19
2023-02-17T03:53:52.792Z,9.19
2023-02-17T03:55:27.588Z,9.19
2023-02-17T03:56:30.439Z,9.19
2023-02-17T03:57:33.211Z,9.19
2023-02-17T03:59:08.056Z,9.19
2023-02-17T04:00:12.654Z,9.19
2023-02-17T04:01:15.424Z,9.19
2023-02-17T04:02:18.575Z,9.19
2023-02-17T04:03:56.477Z,9.25
2023-02-17T04:04:59.903Z,9.19
2023-02-17T04:06:03.083Z,9.19
2023-02-17T04:07:38.563Z,9.19
2023-02-17T04:08:41.468Z,9.19
2023-02-17T04:09:44.681Z,9.19
2023-02-17T04:11:22.837Z,9.19
2023-02-17T04:12:25.708Z,9.19
2023-02-17T04:13:28.697Z,9.25
2023-02-17T04:15:03.299Z,9.25
2023-02-17T04:16:06.865Z,9.25
2023-02-17T04:17:09.956Z,9.25
2023-02-17T04:18:44.754Z,9.25
2023-02-17T04:19:47.666Z,9.31
2023-02-17T04:20:50.365Z,9.31
2023-02-17T04:22:25.115Z,9.31
2023-02-17T04:23:28.375Z,9.31
2023-02-17T04:24:31.500Z,9.38
2023-02-17T04:26:06.903Z,9.38
2023-02-17T04:27:10.237Z,9.38
2023-02-17T04:28:13.186Z,9.38
2023-02-17T04:29:48.274Z,9.38
2023-02-17T04:30:53.103Z,9.38
2023-02-17T04:31:57.063Z,9.38
2023-02-17T04:33:32.123Z,9.44
2023-02-17T04:34:35.106Z,9.44
2023-02-17T04:35:38.022Z,9.44
2023-02-17T04:37:13.492Z,9.44
2023-02-17T04:38:16.440Z,9.44
2023-02-17T04:39:19.353Z,9.50
2023-02-17T04:40:54.473Z,9.44
2023-02-17T04:41:57.384Z,9.50
2023-02-17T04:43:00.465Z,9.50
2023-02-17T04:44:35.320Z,9.50
2023-02-17T04:45:38.203Z,9.50
2023-02-17T04:46:42.104Z,9.50
2023-02-17T04:48:17.002Z,9.56
2023-02-17T04:49:19.797Z,9.50
2023-02-17T04:50:22.664Z,9.50
2023-02-17T04:51:57.385Z,9.50
2023-02-17T04:53:00.254Z,9.50
2023-02-17T04:54:03.139Z,9.50
2023-02-17T04:55:37.873Z,9.50
2023-02-17T04:56:41.611Z,9.50
2023-02-17T04:57:44.900Z,9.50
2023-02-17T04:59:19.798Z,9.50
2023-02-17T05:00:12.370Z,9.50
2023-02-17T05:01:15.306Z,9.50
2023-02-17T05:02:18.701Z,9.50
2023-02-17T05:03:53.739Z,9.50
2023-02-17T05:04:56.913Z,9.50
2023-02-17T05:05:41.316Z,9.50
2023-02-17T05:06:44.953Z,9.50
2023-02-17T05:07:48.282Z,9.50
2023-02-17T05:09:23.552Z,9.50
2023-02-17T05:10:26.786Z,9.50
2023-02-17T05:11:30.041Z,9.50
2023-02-17T05:13:05.701Z,9.50
2023-02-17T05:14:08.629Z,9.50
2023-02-17T05:15:11.927Z,9.50
2023-02-17T05:16:48.897Z,9.50
2023-02-17T05:17:52.064Z,9.50
2023-02-17T05:18:55.387Z,9.50
2023-02-17T05:20:31.461Z,9.50
2023-02-17T05:21:34.883Z,9.50
2023-02-17T05:22:38.089Z,9.50
2023-02-17T05:24:13.172Z,9.50
2023-02-17T05:25:19.371Z,9.50
2023-02-17T05:26:22.611Z,9.56
2023-02-17T05:27:57.369Z,9.50
2023-02-17T05:29:00.232Z,9.50
2023-02-17T05:30:03.373Z,9.50
2023-02-17T05:31:38.863Z,9.50
2023-02-17T05:32:42.656Z,9.50
2023-02-17T05:33:45.884Z,9.50
2023-02-17T05:35:21.124Z,9.50
2023-02-17T05:36:26.912Z,9.50
2023-02-17T05:37:29.789Z,9.50
2023-02-17T05:39:05.207Z,9.50
2023-02-17T05:40:08.225Z,9.44
2023-02-17T05:41:11.464Z,9.44
2023-02-17T05:42:46.651Z,9.44
2023-02-17T05:43:49.780Z,9.44
2023-02-17T05:44:52.890Z,9.50
2023-02-17T05:46:27.824Z,9.50
2023-02-17T05:47:31.106Z,9.50
2023-02-17T05:48:34.231Z,9.50
2023-02-17T05:50:09.457Z,9.50
2023-02-17T05:51:12.516Z,9.50
2023-02-17T05:52:15.442Z,9.50
2023-02-17T05:53:50.697Z,9.50
2023-02-17T05:54:53.790Z,9.56
2023-02-17T05:55:56.869Z,9.56
2023-02-17T05:57:32.481Z,9.56
2023-02-17T05:58:35.681Z,9.56
2023-02-17T05:59:38.919Z,9.56
2023-02-17T06:00:12.877Z,9.56
2023-02-17T06:01:16.054Z,9.56
2023-02-17T06:02:19.103Z,9.56
2023-02-17T06:03:54.687Z,9.56
2023-02-17T06:04:58.156Z,9.56
2023-02-17T06:06:01.793Z,9.56
2023-02-17T06:07:37.309Z,9.50
2023-02-17T06:08:40.163Z,9.50
2023-02-17T06:09:43.153Z,9.50
2023-02-17T06:11:18.570Z,9.50
2023-02-17T06:12:21.700Z,9.50
2023-02-17T06:13:24.967Z,9.50
2023-02-17T06:15:00.045Z,9.50
2023-02-17T06:16:03.246Z,9.50
2023-02-17T06:17:07.720Z,9.50
2023-02-17T06:18:42.584Z,9.56
2023-02-17T06:19:45.520Z,9.56
2023-02-17T06:20:48.827Z,9.56
2023-02-17T06:22:24.295Z,9.56
2023-02-17T06:23:27.523Z,9.56
2023-02-17T06:24:30.640Z,9.56
2023-02-17T06:26:06.326Z,9.56
2023-02-17T06:27:09.874Z,9.56
2023-02-17T06:28:13.006Z,9.56
2023-02-17T06:29:47.952Z,9.56
2023-02-17T06:30:51.437Z,9.56
2023-02-17T06:31:55.524Z,9.56
2023-02-17T06:33:30.841Z,9.56
2023-02-17T06:34:34.036Z,9.56
2023-02-17T06:35:37.051Z,9.56
2023-02-17T06:37:12.936Z,9.56
2023-02-17T06:38:16.128Z,9.56
2023-02-17T06:39:19.436Z,9.56
2023-02-17T06:40:54.546Z,9.56
2023-02-17T06:41:57.559Z,9.56
2023-02-17T06:43:00.571Z,9.56
2023-02-17T06:44:35.870Z,9.56
2023-02-17T06:45:39.038Z,9.56
2023-02-17T06:46:43.279Z,9.56
2023-02-17T06:48:18.481Z,9.56
2023-02-17T06:49:21.556Z,9.56
2023-02-17T06:50:27.047Z,9.56
2023-02-17T06:52:02.584Z,9.56
2023-02-17T06:53:05.456Z,9.56
2023-02-17T06:54:08.311Z,9.56
2023-02-17T06:55:43.402Z,9.56
2023-02-17T06:56:46.793Z,9.56
2023-02-17T06:57:49.708Z,9.56
2023-02-17T06:59:24.658Z,9.56
2023-02-17T07:00:12.363Z,9.56
2023-02-17T07:01:15.235Z,9.63
2023-02-17T07:02:18.378Z,9.56
2023-02-17T07:03:54.503Z,9.56
2023-02-17T07:04:57.463Z,9.56
2023-02-17T07:06:00.576Z,9.56
2023-02-17T07:07:36.000Z,9.56
2023-02-17T07:08:39.319Z,9.56
2023-02-17T07:09:42.515Z,9.56
2023-02-17T07:11:17.357Z,9.63
2023-02-17T07:12:20.266Z,9.56
2023-02-17T07:13:23.328Z,9.56
2023-02-17T07:14:59.833Z,9.63
2023-02-17T07:16:04.583Z,9.63
2023-02-17T07:17:08.457Z,9.63
2023-02-17T07:18:43.773Z,9.63
2023-02-17T07:19:46.719Z,9.63
2023-02-17T07:20:49.539Z,9.63
2023-02-17T07:22:24.448Z,9.63
2023-02-17T07:23:27.459Z,9.63
2023-02-17T07:24:30.429Z,9.63
2023-02-17T07:26:05.743Z,9.69
2023-02-17T07:27:10.709Z,9.69
2023-02-17T07:28:13.778Z,9.63
2023-02-17T07:29:48.550Z,9.69
2023-02-17T07:30:51.908Z,9.69
2023-02-17T07:31:55.410Z,9.75
2023-02-17T07:33:30.299Z,9.75
2023-02-17T07:34:33.069Z,9.75
2023-02-17T07:35:36.152Z,9.75
2023-02-17T07:37:11.936Z,9.75
2023-02-17T07:38:15.078Z,9.75
2023-02-17T07:39:19.561Z,9.75
2023-02-17T07:40:54.443Z,9.75
2023-02-17T07:41:57.479Z,9.75
2023-02-17T07:43:00.306Z,9.75
2023-02-17T07:44:35.561Z,9.75
2023-02-17T07:45:38.571Z,9.75
2023-02-17T07:46:46.213Z,9.75
2023-02-17T07:48:21.109Z,9.81
2023-02-17T07:49:23.998Z,9.81
2023-02-17T07:50:26.907Z,9.81
2023-02-17T07:52:04.187Z,9.81
2023-02-17T07:53:08.100Z,9.81
2023-02-17T07:54:11.329Z,9.81
2023-02-17T07:55:46.515Z,9.88
2023-02-17T07:56:49.627Z,9.88
2023-02-17T07:57:52.908Z,9.88
2023-02-17T07:59:28.127Z,9.88
2023-02-17T08:00:11.847Z,9.88
2023-02-17T08:01:14.865Z,9.88
2023-02-17T08:02:17.833Z,9.88
2023-02-17T08:03:52.753Z,9.88
2023-02-17T08:04:56.086Z,9.88
2023-02-17T08:05:58.929Z,9.88
2023-02-17T08:07:34.215Z,9.88
2023-02-17T08:08:37.196Z,9.88
2023-02-17T08:09:40.116Z,9.94
2023-02-17T08:11:15.147Z,9.88
2023-02-17T08:12:20.325Z,9.94
2023-02-17T08:13:23.381Z,9.94
2023-02-17T08:14:59.619Z,9.94
2023-02-17T08:16:02.478Z,10.00
2023-02-17T08:17:06.180Z,10.00
2023-02-17T08:18:40.885Z,10.00
2023-02-17T08:19:48.600Z,10.00
2023-02-17T08:21:00.110Z,10.00
2023-02-17T08:22:35.884Z,10.00
2023-02-17T08:23:38.681Z,10.06
2023-02-17T08:24:42.757Z,10.06
2023-02-17T08:26:17.665Z,10.00
2023-02-17T08:27:20.670Z,10.06
2023-02-17T08:28:23.594Z,10.06
2023-02-17T08:29:58.710Z,10.06
2023-02-17T08:31:02.081Z,10.13
2023-02-17T08:32:06.445Z,10.13
2023-02-17T08:33:41.856Z,10.19
2023-02-17T08:34:44.969Z,10.19
2023-02-17T08:35:47.843Z,10.13
2023-02-17T08:37:23.103Z,10.19
2023-02-17T08:38:26.024Z,10.19
2023-02-17T08:39:29.029Z,10.25
2023-02-17T08:41:03.827Z,10.25
2023-02-17T08:42:06.992Z,10.25
2023-02-17T08:43:10.013Z,10.25
2023-02-17T08:44:45.074Z,10.25
2023-02-17T08:45:48.613Z,10.25
2023-02-17T08:46:52.246Z,10.25
2023-02-17T08:48:27.152Z,10.31
2023-02-17T08:49:31.815Z,10.31
2023-02-17T08:50:35.342Z,10.31
2023-02-17T08:52:10.616Z,10.38
2023-02-17T08:53:13.610Z,10.38
2023-02-17T08:54:16.801Z,10.38
2023-02-17T08:55:51.792Z,10.38
2023-02-17T08:56:55.397Z,10.38
2023-02-17T08:57:58.508Z,10.44
2023-02-17T08:59:33.984Z,10.44
2023-02-17T09:00:12.661Z,10.50
2023-02-17T09:01:15.895Z,10.44
2023-02-17T09:02:19.593Z,10.44
2023-02-17T09:03:54.630Z,10.50
2023-02-17T09:04:58.148Z,10.50
2023-02-17T09:06:01.495Z,10.50
2023-02-17T09:07:37.186Z,10.50
2023-02-17T09:08:40.225Z,10.50
2023-02-17T09:09:43.281Z,10.50
2023-02-17T09:11:18.352Z,10.50
2023-02-17T09:12:21.500Z,10.50
2023-02-17T09:13:24.555Z,10.50
2023-02-17T09:14:59.384Z,10.50
2023-02-17T09:16:02.522Z,10.50
2023-02-17T09:17:06.350Z,10.56
2023-02-17T09:18:41.534Z,10.56
2023-02-17T09:19:44.793Z,10.56
2023-02-17T09:21:04.812Z,10.63
2023-02-17T09:22:40.024Z,10.63
2023-02-17T09:23:44.283Z,10.63
2023-02-17T09:24:47.839Z,10.63
2023-02-17T09:26:23.320Z,10.69
2023-02-17T09:27:26.357Z,10.69
2023-02-17T09:28:29.515Z,10.69
2023-02-17T09:30:04.568Z,10.69
2023-02-17T09:31:08.375Z,10.69
2023-02-17T09:32:12.565Z,10.69
2023-02-17T09:33:48.119Z,10.69
2023-02-17T09:34:51.271Z,10.69
2023-02-17T09:35:54.467Z,10.69
2023-02-17T09:37:30.275Z,10.69
2023-02-17T09:38:33.302Z,10.69
2023-02-17T09:39:36.749Z,10.75
2023-02-17T09:41:11.940Z,10.75
2023-02-17T09:42:15.230Z,10.75
2023-02-17T09:43:18.333Z,10.75
2023-02-17T09:44:53.326Z,10.75
2023-02-17T09:45:59.094Z,10.81
2023-02-17T09:47:03.459Z,10.81
2023-02-17T09:48:38.885Z,10.81
2023-02-17T09:49:41.905Z,10.81
2023-02-17T09:50:44.881Z,10.81
2023-02-17T09:52:19.943Z,10.81
2023-02-17T09:53:22.983Z,10.81
2023-02-17T09:54:26.212Z,10.88
2023-02-17T09:56:01.365Z,10.88
2023-02-17T09:57:08.530Z,10.88
2023-02-17T09:58:11.513Z,10.88
2023-02-17T09:59:46.747Z,10.94
2023-02-17T10:00:12.448Z,10.94
2023-02-17T10:01:15.533Z,10.94
2023-02-17T10:02:18.705Z,10.94
2023-02-17T10:03:57.447Z,10.94
2023-02-17T10:05:01.316Z,10.94
2023-02-17T10:06:05.331Z,10.94
2023-02-17T10:07:40.690Z,10.94
2023-02-17T10:08:43.811Z,10.94
2023-02-17T10:09:48.101Z,11.00
2023-02-17T10:11:23.250Z,11.06
2023-02-17T10:12:26.726Z,11.06
2023-02-17T10:13:30.271Z,11.13
2023-02-17T10:15:05.312Z,11.13
2023-02-17T10:16:11.749Z,11.19
2023-02-17T10:17:15.357Z,11.19
2023-02-17T10:18:50.293Z,11.19
2023-02-17T10:19:53.276Z,11.19
2023-02-17T10:20:56.150Z,11.19
2023-02-17T10:22:31.678Z,11.19
2023-02-17T10:23:34.744Z,11.25
2023-02-17T10:24:38.062Z,11.19
2023-02-17T10:26:13.435Z,11.19
2023-02-17T10:27:20.028Z,11.19
2023-02-17T10:28:23.448Z,11.19
2023-02-17T10:29:59.060Z,11.19
2023-02-17T10:31:02.812Z,11.19
2023-02-17T10:32:07.024Z,11.19
2023-02-17T10:33:44.828Z,11.19
2023-02-17T10:34:48.065Z,11.19
2023-02-17T10:35:51.149Z,11.13
2023-02-17T10:37:26.711Z,11.13
2023-02-17T10:38:30.892Z,11.13
2023-02-17T10:39:33.886Z,11.13
2023-02-17T10:41:08.676Z,11.13
2023-02-17T10:42:11.656Z,11.13
2023-02-17T10:43:14.748Z,11.13
2023-02-17T10:44:49.848Z,11.13
2023-02-17T10:45:53.177Z,11.13
2023-02-17T10:46:57.079Z,11.13
2023-02-17T10:48:32.217Z,11.13
2023-02-17T10:49:35.460Z,11.13
2023-02-17T10:50:38.421Z,11.13
2023-02-17T10:52:13.443Z,11.13
2023-02-17T10:53:16.258Z,11.13
2023-02-17T10:54:19.299Z,11.13
2023-02-17T10:56:09.383Z,11.13
2023-02-17T10:57:12.318Z,11.13
2023-02-17T10:58:18.871Z,11.13
2023-02-17T10:59:54.048Z,11.13
2023-02-17T11:00:11.947Z,11.13
2023-02-17T11:01:15.456Z,11.13
2023-02-17T11:02:18.623Z,11.13
2023-02-17T11:03:53.673Z,11.13
2023-02-17T11:04:59.997Z,11.13
2023-02-17T11:06:03.069Z,11.13
2023-02-17T11:07:38.528Z,11.19
2023-02-17T11:08:41.358Z,11.19
2023-02-17T11:09:44.231Z,11.19
2023-02-17T11:11:19.901Z,11.13
2023-02-17T11:12:22.935Z,11.13
2023-02-17T11:13:26.029Z,11.13
2023-02-17T11:15:01.118Z,11.13
2023-02-17T11:16:04.090Z,11.13
2023-02-17T11:17:10.497Z,11.13
2023-02-17T11:18:45.947Z,11.06
2023-02-17T11:19:49.978Z,11.06
2023-02-17T11:20:53.689Z,11.06
2023-02-17T11:22:29.683Z,11.06
2023-02-17T11:23:32.716Z,11.00
2023-02-17T11:24:35.802Z,11.00
2023-02-17T11:26:10.709Z,11.00
2023-02-17T11:27:13.608Z,11.00
2023-02-17T11:28:16.619Z,11.00
2023-02-17T11:29:53.485Z,11.00
2023-02-17T11:30:56.841Z,10.94
2023-02-17T11:32:00.781Z,10.94
2023-02-17T11:33:35.968Z,11.00
2023-02-17T11:34:42.046Z,11.00
2023-02-17T11:35:45.051Z,11.00
2023-02-17T11:37:20.654Z,11.00
2023-02-17T11:38:23.618Z,11.00
2023-02-17T11:39:26.604Z,11.00
2023-02-17T11:41:03.351Z,11.00
2023-02-17T11:42:06.363Z,11.00
2023-02-17T11:43:09.328Z,11.00
2023-02-17T11:44:44.135Z,11.00
2023-02-17T11:45:47.175Z,11.00
2023-02-17T11:46:53.472Z,11.00
2023-02-17T11:48:28.265Z,11.00
2023-02-17T11:49:31.323Z,10.94
2023-02-17T11:50:41.452Z,11.00
2023-02-17T11:52:17.050Z,10.94
2023-02-17T11:53:21.474Z,11.00
2023-02-17T11:54:24.551Z,11.00
2023-02-17T11:55:59.564Z,11.00
2023-02-17T11:57:03.051Z,11.00
2023-02-17T11:58:05.931Z,11.00
2023-02-17T11:59:40.501Z,11.00
2023-02-17T12:00:12.400Z,11.00
2023-02-17T12:01:15.484Z,11.00
2023-02-17T12:02:18.332Z,11.00
2023-02-17T12:03:53.196Z,11.00
2023-02-17T12:04:56.109Z,11.00
2023-02-17T12:05:59.288Z,11.00
2023-02-17T12:07:34.949Z,11.00
2023-02-17T12:08:37.956Z,11.00
2023-02-17T12:09:44.560Z,11.00
2023-02-17T12:11:19.658Z,11.00
2023-02-17T12:12:22.866Z,11.00
2023-02-17T12:13:25.677Z,11.00
2023-02-17T12:15:00.512Z,10.94
2023-02-17T12:16:03.472Z,10.94
2023-02-17T12:17:07.604Z,10.94
2023-02-17T12:18:42.442Z,10.94
2023-02-17T12:19:45.270Z,10.94
2023-02-17T12:20:48.309Z,10.88
2023-02-17T12:22:23.312Z,10.94
2023-02-17T12:23:26.308Z,10.94
2023-02-17T12:24:29.242Z,10.94
2023-02-17T12:26:04.297Z,10.94
2023-02-17T12:27:07.524Z,10.94
2023-02-17T12:28:10.754Z,10.94
2023-02-17T12:29:45.674Z,10.94
2023-02-17T12:30:49.102Z,10.94
2023-02-17T12:31:57.567Z,10.88
2023-02-17T12:33:33.266Z,10.94
2023-02-17T12:34:36.159Z,10.88
2023-02-17T12:35:39.334Z,10.88
2023-02-17T12:37:14.578Z,10.88
2023-02-17T12:38:17.352Z,10.88
2023-02-17T12:39:20.265Z,10.88
2023-02-17T12:40:55.034Z,10.81
2023-02-17T12:41:58.098Z,10.81
2023-02-17T12:43:01.312Z,10.81
2023-02-17T12:44:36.327Z,10.75
2023-02-17T12:45:39.549Z,10.75
2023-02-17T12:46:43.403Z,10.69
2023-02-17T12:48:18.393Z,10.69
2023-02-17T12:49:21.295Z,10.63
2023-02-17T12:50:24.125Z,10.63
2023-02-17T12:51:59.037Z,10.56
2023-02-17T12:53:01.945Z,10.56
2023-02-17T12:54:04.891Z,10.56
2023-02-17T12:55:39.781Z,10.50
2023-02-17T12:56:43.174Z,10.50
2023-02-17T12:57:46.369Z,10.50
2023-02-17T12:59:21.375Z,10.50
2023-02-17T13:00:12.049Z,10.50
2023-02-17T13:01:15.198Z,10.50
2023-02-17T13:02:18.737Z,10.50
2023-02-17T13:03:54.510Z,10.50
2023-02-17T13:04:57.592Z,10.50
2023-02-17T13:06:00.463Z,10.50
2023-02-17T13:07:35.887Z,10.50
2023-02-17T13:08:38.742Z,10.50
2023-02-17T13:09:41.667Z,10.50
2023-02-17T13:11:16.492Z,10.50
2023-02-17T13:12:19.571Z,10.56
2023-02-17T13:13:22.773Z,10.56
2023-02-17T13:14:57.891Z,10.56
2023-02-17T13:16:01.139Z,10.56
2023-02-17T13:17:05.164Z,10.56
2023-02-17T13:18:40.220Z,10.56
2023-02-17T13:19:43.167Z,10.56
2023-02-17T13:20:46.288Z,10.50
2023-02-17T13:22:21.388Z,10.50
2023-02-17T13:23:24.648Z,10.50
2023-02-17T13:24:27.866Z,10.50
2023-02-17T13:26:02.811Z,10.50
2023-02-17T13:27:05.848Z,10.50
2023-02-17T13:28:08.798Z,10.50
2023-02-17T13:29:43.460Z,10.50
2023-02-17T13:30:47.008Z,10.50
2023-02-17T13:31:51.235Z,10.56
2023-02-17T13:33:27.230Z,10.50
2023-02-17T13:34:30.508Z,10.50
2023-02-17T13:35:33.532Z,10.56
2023-02-17T13:37:08.764Z,10.56
2023-02-17T13:38:11.914Z,10.56
2023-02-17T13:39:15.151Z,10.56
2023-02-17T13:40:49.958Z,10.63
2023-02-17T13:41:53.126Z,10.63
2023-02-17T13:42:55.833Z,10.63
2023-02-17T13:44:30.871Z,10.63
2023-02-17T13:45:33.876Z,10.69
2023-02-17T13:46:37.294Z,10.69
2023-02-17T13:48:12.931Z,10.69
2023-02-17T13:49:16.053Z,10.69
2023-02-17T13:50:19.032Z,10.69
2023-02-17T13:51:53.989Z,10.69
2023-02-17T13:52:56.981Z,10.69
2023-02-17T13:54:00.445Z,10.69
2023-02-17T13:55:35.473Z,10.75
2023-02-17T13:56:38.572Z,10.75
2023-02-17T13:57:41.643Z,10.75
2023-02-17T13:59:16.438Z,10.81
2023-02-17T14:00:12.667Z,10.81
2023-02-17T14:01:15.636Z,10.81
2023-02-17T14:02:35.120Z,10.81
2023-02-17T14:04:10.512Z,10.81
2023-02-17T14:05:14.000Z,10.88
2023-02-17T14:06:17.222Z,10.88
2023-02-17T14:07:52.094Z,10.88
2023-02-17T14:08:55.103Z,10.94
2023-02-17T14:09:58.348Z,10.94
2023-02-17T14:11:33.285Z,11.00
2023-02-17T14:12:36.544Z,11.00
2023-02-17T14:13:39.430Z,11.00
2023-02-17T14:15:14.183Z,11.00
2023-02-17T14:16:17.439Z,11.00
2023-02-17T14:17:20.235Z,11.06
2023-02-17T14:18:56.410Z,11.06
2023-02-17T14:19:59.379Z,11.06
2023-02-17T14:21:02.356Z,11.06
2023-02-17T14:22:38.229Z,11.13
2023-02-17T14:23:56.324Z,11.19
2023-02-17T14:24:59.484Z,11.19
2023-02-17T14:26:34.498Z,11.19
2023-02-17T14:27:37.395Z,11.19
2023-02-17T14:28:40.422Z,11.19
2023-02-17T14:30:15.711Z,11.25
2023-02-17T14:31:19.883Z,11.25
2023-02-17T14:32:23.797Z,11.25
2023-02-17T14:33:58.637Z,11.25
2023-02-17T14:35:01.779Z,11.25
2023-02-17T14:36:04.876Z,11.25
2023-02-17T14:37:40.205Z,11.25
2023-02-17T14:38:43.098Z,11.25
2023-02-17T14:39:46.043Z,11.25
2023-02-17T14:41:21.123Z,11.31
2023-02-17T14:42:24.286Z,11.31
2023-02-17T14:43:27.450Z,11.31
2023-02-17T14:45:02.315Z,11.31
2023-02-17T14:46:06.068Z,11.38
2023-02-17T14:47:09.651Z,11.38
2023-02-17T14:48:44.493Z,11.31
2023-02-17T14:49:47.317Z,11.38
2023-02-17T14:50:50.262Z,11.38
2023-02-17T14:52:25.121Z,11.38
2023-02-17T14:53:28.308Z,11.38
2023-02-17T14:54:31.124Z,11.38
2023-02-17T14:56:06.459Z,11.38
2023-02-17T14:57:09.954Z,11.38
2023-02-17T14:58:12.956Z,11.44
2023-02-17T14:59:48.230Z,11.44
2023-02-17T15:00:12.345Z,11.44
2023-02-17T15:01:15.686Z,11.44
2023-02-17T15:02:19.069Z,11.44
2023-02-17T15:03:54.028Z,11.44
2023-02-17T15:04:57.072Z,11.50
2023-02-17T15:06:00.237Z,11.50
2023-02-17T15:07:39.329Z,11.50
2023-02-17T15:08:42.174Z,11.50
2023-02-17T15:09:45.448Z,11.50
2023-02-17T15:11:20.165Z,11.50
2023-02-17T15:12:23.054Z,11.50
2023-02-17T15:13:26.056Z,11.50
2023-02-17T15:15:01.720Z,11.50
2023-02-17T15:16:05.076Z,11.56
2023-02-17T15:17:08.996Z,11.56
2023-02-17T15:18:43.752Z,11.56
2023-02-17T15:19:46.724Z,11.56
2023-02-17T15:20:49.706Z,11.56
2023-02-17T15:22:24.538Z,11.56
2023-02-17T15:23:27.889Z,11.56
2023-02-17T15:24:33.400Z,11.56
2023-02-17T15:26:08.739Z,11.56
2023-02-17T15:27:11.691Z,11.56
2023-02-17T15:28:14.704Z,11.56
2023-02-17T15:29:49.782Z,11.56
2023-02-17T15:30:53.257Z,11.56
2023-02-17T15:31:57.257Z,11.56
2023-02-17T15:33:33.116Z,11.56
2023-02-17T15:34:36.255Z,11.56
2023-02-17T15:35:39.309Z,11.56
2023-02-17T15:37:14.802Z,11.56
2023-02-17T15:38:17.934Z,11.56
2023-02-17T15:39:20.719Z,11.50
2023-02-17T15:40:55.435Z,11.50
2023-02-17T15:41:58.456Z,11.50
2023-02-17T15:43:01.358Z,11.50
2023-02-17T15:44:36.201Z,11.50
2023-02-17T15:45:39.047Z,11.50
2023-02-17T15:46:42.817Z,11.50
2023-02-17T15:48:17.926Z,11.50
2023-02-17T15:49:20.940Z,11.50
2023-02-17T15:50:23.980Z,11.50
2023-02-17T15:51:59.082Z,11.50
2023-02-17T15:53:02.057Z,11.44
2023-02-17T15:54:04.955Z,11.44
2023-02-17T15:55:39.774Z,11.44
2023-02-17T15:56:43.041Z,11.44
2023-02-17T15:57:46.011Z,11.38
2023-02-17T15:59:20.792Z,11.38
2023-02-17T16:00:12.100Z,11.38